Time;durP1;ratioP1;P1;durP2;ratioP2;P2;SDS_P1;SDS_P2;PMS_P1;PMS_P2;Temp;Humidity;BMP_temperature;BMP_pressure;BME280_temperature;BME280_humidity;BME280_pressure;Samples;Min_cycle;Max_cycle;Signal;HPM_P1;HPM_P2
2024/03/23 00:01:43;;;;;;;0.20;0.10;;;;;;;;;;5004683;28;20113;-79
2024/03/23 00:04:09;;;;;;;0.20;0.10;;;;;;;;;;5003502;28;20041;-79
2024/03/23 00:06:35;;;;;;;0.20;0.10;;;;;;;;;;5001745;28;20525;-79
2024/03/23 00:09:02;;;;;;;0.20;0.10;;;;;;;;;;5006867;28;20041;-79
2024/03/23 00:11:29;;;;;;;0.20;0.10;;;;;;;;;;5004559;28;20413;-79
2024/03/23 00:13:56;;;;;;;0.20;0.00;;;;;;;;;;5000165;28;20501;-79
2024/03/23 00:16:24;;;;;;;0.20;0.10;;;;;;;;;;5000886;28;20128;-79
2024/03/23 00:18:51;;;;;;;0.20;0.10;;;;;;;;;;5003901;28;20540;-79
2024/03/23 00:21:17;;;;;;;0.20;0.10;;;;;;;;;;5004770;28;20077;-79
2024/03/23 00:23:44;;;;;;;0.20;0.10;;;;;;;;;;5004374;28;20053;-79
2024/03/23 00:26:10;;;;;;;0.40;0.35;;;;;;;;;;4988211;28;20042;-79
2024/03/23 00:28:36;;;;;;;0.20;0.10;;;;;;;;;;5003426;28;20045;-79
2024/03/23 00:31:03;;;;;;;0.20;0.00;;;;;;;;;;5002167;28;20505;-79
2024/03/23 00:33:29;;;;;;;0.20;0.10;;;;;;;;;;5007305;28;20541;-79
2024/03/23 00:35:56;;;;;;;0.20;0.10;;;;;;;;;;5003116;28;20041;-79
2024/03/23 00:38:24;;;;;;;0.20;0.10;;;;;;;;;;4990576;28;20037;-79
2024/03/23 00:40:51;;;;;;;0.20;0.10;;;;;;;;;;5008410;28;20045;-79
2024/03/23 00:43:17;;;;;;;0.60;0.60;;;;;;;;;;5005921;28;20572;-79
2024/03/23 00:45:44;;;;;;;0.20;0.10;;;;;;;;;;5007495;28;20042;-80
2024/03/23 00:48:11;;;;;;;0.82;0.68;;;;;;;;;;4990899;28;20049;-79
2024/03/23 00:50:37;;;;;;;0.20;0.08;;;;;;;;;;4998965;28;20498;-79
2024/03/23 00:53:04;;;;;;;0.63;0.20;;;;;;;;;;5003877;28;20038;-79
2024/03/23 00:55:30;;;;;;;0.20;0.10;;;;;;;;;;5009936;28;20042;-79
2024/03/23 00:57:55;;;;;;;0.20;0.10;;;;;;;;;;5005834;28;20037;-79
2024/03/23 01:00:21;;;;;;;0.20;0.10;;;;;;;;;;5007069;28;20042;-80
2024/03/23 01:02:47;;;;;;;0.20;0.10;;;;;;;;;;5001757;28;20088;-78
2024/03/23 01:05:13;;;;;;;0.20;0.17;;;;;;;;;;5004453;28;20037;-78
2024/03/23 01:07:39;;;;;;;0.40;0.20;;;;;;;;;;5005786;28;20076;-78
2024/03/23 01:10:06;;;;;;;0.20;0.15;;;;;;;;;;5000499;28;20048;-77
2024/03/23 01:12:31;;;;;;;0.20;0.00;;;;;;;;;;5002083;28;20041;-77
2024/03/23 01:14:57;;;;;;;0.20;0.10;;;;;;;;;;4989024;28;20040;-77
2024/03/23 01:17:23;;;;;;;0.20;0.10;;;;;;;;;;5003213;28;20046;-78
2024/03/23 01:19:49;;;;;;;0.20;0.10;;;;;;;;;;4989371;28;20555;-78
2024/03/23 01:22:15;;;;;;;0.20;0.10;;;;;;;;;;4989520;28;20072;-78
2024/03/23 01:24:41;;;;;;;0.20;0.10;;;;;;;;;;4973910;28;20045;-78
2024/03/23 01:27:09;;;;;;;2.50;0.30;;;;;;;;;;4988822;28;20100;-78
2024/03/23 01:29:35;;;;;;;0.20;0.10;;;;;;;;;;4987514;28;20033;-77
2024/03/23 01:32:01;;;;;;;0.20;0.10;;;;;;;;;;4987974;28;20111;-78
2024/03/23 01:34:27;;;;;;;0.20;0.10;;;;;;;;;;4989804;28;20049;-78
2024/03/23 01:36:53;;;;;;;0.20;0.10;;;;;;;;;;4987318;28;20046;-77
2024/03/23 01:39:19;;;;;;;0.20;0.10;;;;;;;;;;4985345;28;20040;-78
2024/03/23 01:41:45;;;;;;;0.20;0.10;;;;;;;;;;4984579;28;20490;-78
2024/03/23 01:44:11;;;;;;;0.52;0.52;;;;;;;;;;4989338;28;20121;-78
2024/03/23 01:46:38;;;;;;;0.20;0.10;;;;;;;;;;4989959;28;20041;-78
2024/03/23 01:49:08;;;;;;;0.20;0.10;;;;;;;;;;4971841;28;20064;-78
2024/03/23 01:51:34;;;;;;;0.20;0.00;;;;;;;;;;4987413;28;20493;-78
2024/03/23 01:54:02;;;;;;;0.20;0.10;;;;;;;;;;4991219;28;20126;-79
2024/03/23 01:56:29;;;;;;;0.20;0.10;;;;;;;;;;4988612;28;20413;-77
2024/03/23 01:58:55;;;;;;;0.20;0.00;;;;;;;;;;4988580;28;20116;-78
2024/03/23 02:01:21;;;;;;;0.20;0.10;;;;;;;;;;4986304;28;20125;-78
2024/03/23 02:03:48;;;;;;;0.20;0.10;;;;;;;;;;4988789;28;20129;-78
2024/03/23 02:06:14;;;;;;;0.20;0.10;;;;;;;;;;5020930;28;20041;-78
2024/03/23 02:08:40;;;;;;;0.20;0.10;;;;;;;;;;4973358;28;20038;-78
2024/03/23 02:11:06;;;;;;;0.20;0.10;;;;;;;;;;4985909;28;20138;-78
2024/03/23 02:13:32;;;;;;;0.52;0.20;;;;;;;;;;4991986;28;20076;-78
2024/03/23 02:15:58;;;;;;;0.20;0.10;;;;;;;;;;4971406;28;20084;-79
2024/03/23 02:18:24;;;;;;;0.20;0.10;;;;;;;;;;4978103;28;20038;-78
2024/03/23 02:20:50;;;;;;;0.20;0.10;;;;;;;;;;4988947;28;20046;-78
2024/03/23 02:23:17;;;;;;;0.20;0.10;;;;;;;;;;4987642;28;20045;-78
2024/03/23 02:25:43;;;;;;;0.20;0.10;;;;;;;;;;4987679;28;20053;-78
2024/03/23 02:28:10;;;;;;;0.20;0.10;;;;;;;;;;4991978;28;20038;-79
2024/03/23 02:30:36;;;;;;;0.20;0.05;;;;;;;;;;4976817;28;20081;-78
2024/03/23 02:33:02;;;;;;;0.20;0.10;;;;;;;;;;4985960;28;20041;-78
2024/03/23 02:35:28;;;;;;;0.20;0.00;;;;;;;;;;4989149;28;20180;-78
2024/03/23 02:37:56;;;;;;;0.20;0.10;;;;;;;;;;4987863;28;20730;-78
2024/03/23 02:40:22;;;;;;;0.20;0.10;;;;;;;;;;4988873;28;20135;-78
2024/03/23 02:42:48;;;;;;;0.30;0.30;;;;;;;;;;4973388;28;20490;-78
2024/03/23 02:45:14;;;;;;;0.20;0.10;;;;;;;;;;4989941;28;20595;-78
2024/03/23 02:47:40;;;;;;;0.20;0.10;;;;;;;;;;4993214;28;20061;-78
2024/03/23 02:50:06;;;;;;;0.20;0.10;;;;;;;;;;4984900;28;20050;-78
2024/03/23 02:52:32;;;;;;;0.20;0.10;;;;;;;;;;4999315;28;20092;-78
2024/03/23 02:54:58;;;;;;;0.20;0.10;;;;;;;;;;4967884;28;20056;-78
2024/03/23 02:57:24;;;;;;;0.20;0.10;;;;;;;;;;4983734;28;20038;-78
2024/03/23 02:59:50;;;;;;;0.20;0.10;;;;;;;;;;4968332;28;20457;-79
2024/03/23 03:02:17;;;;;;;0.20;0.10;;;;;;;;;;4971962;28;20038;-78
2024/03/23 03:04:42;;;;;;;0.20;0.10;;;;;;;;;;4986455;28;20132;-78
2024/03/23 03:07:08;;;;;;;0.20;0.10;;;;;;;;;;4986783;28;20188;-78
2024/03/23 03:09:35;;;;;;;0.90;0.45;;;;;;;;;;4989146;28;20586;-79
2024/03/23 03:12:02;;;;;;;0.20;0.10;;;;;;;;;;4989519;28;20042;-79
2024/03/23 03:14:28;;;;;;;0.25;0.25;;;;;;;;;;4966413;28;20049;-78
2024/03/23 03:16:54;;;;;;;0.20;0.03;;;;;;;;;;5015624;23;20042;-81
2024/03/23 03:19:20;;;;;;;0.20;0.20;;;;;;;;;;5011390;28;20049;-79
2024/03/23 03:21:47;;;;;;;0.25;0.05;;;;;;;;;;5028768;28;20091;-79
2024/03/23 03:24:13;;;;;;;0.20;0.10;;;;;;;;;;5034740;28;20059;-80
2024/03/23 03:26:39;;;;;;;0.20;0.00;;;;;;;;;;5033116;28;20178;-80
2024/03/23 03:29:05;;;;;;;0.20;0.10;;;;;;;;;;5023336;28;20122;-80
2024/03/23 03:31:31;;;;;;;0.22;0.13;;;;;;;;;;5026343;28;20104;-80
2024/03/23 03:33:57;;;;;;;0.20;0.00;;;;;;;;;;5010812;28;20456;-80
2024/03/23 03:36:23;;;;;;;0.20;0.10;;;;;;;;;;5016630;28;20041;-79
2024/03/23 03:38:49;;;;;;;0.20;0.10;;;;;;;;;;5031120;28;20068;-79
2024/03/23 03:41:16;;;;;;;0.20;0.10;;;;;;;;;;5032699;28;20033;-80
2024/03/23 03:43:42;;;;;;;0.20;0.10;;;;;;;;;;5026708;28;20425;-80
2024/03/23 03:46:08;;;;;;;0.20;0.00;;;;;;;;;;5035494;28;20041;-80
2024/03/23 03:48:34;;;;;;;0.20;0.00;;;;;;;;;;5024845;28;20053;-79
2024/03/23 03:51:00;;;;;;;0.20;0.10;;;;;;;;;;5014092;28;20052;-79
2024/03/23 03:53:26;;;;;;;0.20;0.10;;;;;;;;;;5023711;28;20045;-78
2024/03/23 03:55:52;;;;;;;0.20;0.08;;;;;;;;;;5024743;28;20248;-79
2024/03/23 03:58:18;;;;;;;0.20;0.10;;;;;;;;;;5030449;28;20461;-79
2024/03/23 04:00:44;;;;;;;0.20;0.10;;;;;;;;;;5030179;28;20493;-78
2024/03/23 04:03:10;;;;;;;0.20;0.10;;;;;;;;;;5028717;28;20037;-79
2024/03/23 04:05:37;;;;;;;0.20;0.10;;;;;;;;;;5029515;28;20132;-79
2024/03/23 04:08:04;;;;;;;0.20;0.10;;;;;;;;;;5029606;28;20578;-78
2024/03/23 04:10:30;;;;;;;0.20;0.10;;;;;;;;;;5024740;28;20508;-78
2024/03/23 04:12:56;;;;;;;0.20;0.00;;;;;;;;;;5014059;28;20059;-78
2024/03/23 04:15:22;;;;;;;0.20;0.10;;;;;;;;;;5030729;28;20045;-78
2024/03/23 04:17:48;;;;;;;0.20;0.10;;;;;;;;;;5027931;28;20430;-78
2024/03/23 04:20:16;;;;;;;0.20;0.10;;;;;;;;;;5018823;28;20040;-79
2024/03/23 04:22:43;;;;;;;0.20;0.00;;;;;;;;;;5014632;28;20049;-79
2024/03/23 04:25:10;;;;;;;0.20;0.10;;;;;;;;;;5016402;28;20069;-78
2024/03/23 04:27:36;;;;;;;0.20;0.10;;;;;;;;;;5009508;28;20402;-78
2024/03/23 04:30:04;;;;;;;0.20;0.10;;;;;;;;;;5027927;28;20060;-79
2024/03/23 04:32:30;;;;;;;0.20;0.10;;;;;;;;;;5026911;28;20509;-79
2024/03/23 04:34:56;;;;;;;0.20;0.10;;;;;;;;;;5030584;28;20118;-79
2024/03/23 04:37:22;;;;;;;0.20;0.00;;;;;;;;;;5013837;28;20037;-79
2024/03/23 04:39:48;;;;;;;0.20;0.00;;;;;;;;;;5028173;28;20033;-78
2024/03/23 04:42:18;;;;;;;0.20;0.10;;;;;;;;;;5012557;28;20037;-78
2024/03/23 04:44:44;;;;;;;0.20;0.10;;;;;;;;;;5032247;28;20033;-79
2024/03/23 04:47:11;;;;;;;0.20;0.00;;;;;;;;;;5027258;28;20048;-78
2024/03/23 04:49:37;;;;;;;0.20;0.10;;;;;;;;;;5028736;28;20119;-79
2024/03/23 04:52:06;;;;;;;0.30;0.30;;;;;;;;;;5027535;28;20120;-78
2024/03/23 04:54:32;;;;;;;0.20;0.10;;;;;;;;;;5005349;28;20433;-79
2024/03/23 04:56:58;;;;;;;0.20;0.10;;;;;;;;;;5016226;28;20515;-78
2024/03/23 04:59:24;;;;;;;0.30;0.22;;;;;;;;;;5030372;28;20537;-79
2024/03/23 05:01:50;;;;;;;0.20;0.10;;;;;;;;;;5031628;28;20136;-78
2024/03/23 05:04:16;;;;;;;0.20;0.00;;;;;;;;;;5032905;28;20056;-77
2024/03/23 05:06:42;;;;;;;0.30;0.30;;;;;;;;;;5018698;28;20064;-77
2024/03/23 05:09:11;;;;;;;0.20;0.10;;;;;;;;;;5006673;28;20055;-78
2024/03/23 05:11:41;;;;;;;0.20;0.10;;;;;;;;;;5029332;28;20053;-78
2024/03/23 05:14:07;;;;;;;0.20;0.10;;;;;;;;;;5026588;28;20033;-77
2024/03/23 05:16:34;;;;;;;0.20;0.10;;;;;;;;;;5030113;28;20037;-77
2024/03/23 05:19:00;;;;;;;0.20;0.00;;;;;;;;;;5011165;28;20051;-79
2024/03/23 05:21:28;;;;;;;0.20;0.08;;;;;;;;;;5025708;28;20661;-78
2024/03/23 05:23:54;;;;;;;0.20;0.00;;;;;;;;;;5012975;28;20120;-78
2024/03/23 05:26:20;;;;;;;0.20;0.00;;;;;;;;;;5018080;28;20128;-78
2024/03/23 05:28:46;;;;;;;0.20;0.00;;;;;;;;;;5022913;28;20064;-78
2024/03/23 05:31:12;;;;;;;6.22;0.55;;;;;;;;;;5022178;28;20512;-77
2024/03/23 05:33:38;;;;;;;0.20;0.00;;;;;;;;;;5024597;28;20040;-79
2024/03/23 05:36:04;;;;;;;0.20;0.00;;;;;;;;;;5011488;28;20040;-78
2024/03/23 05:38:30;;;;;;;0.20;0.10;;;;;;;;;;5026106;28;20048;-79
2024/03/23 05:40:56;;;;;;;0.20;0.10;;;;;;;;;;5022531;28;20409;-78
2024/03/23 05:43:23;;;;;;;0.20;0.10;;;;;;;;;;5007148;28;20187;-78
2024/03/23 05:45:58;;;;;;;0.20;0.00;;;;;;;;;;5027369;28;20127;-79
2024/03/23 05:48:25;;;;;;;0.20;0.00;;;;;;;;;;5025918;28;20040;-80
2024/03/23 05:50:51;;;;;;;0.20;0.13;;;;;;;;;;5027293;28;20048;-79
2024/03/23 05:53:18;;;;;;;0.20;0.08;;;;;;;;;;5020327;28;20033;-79
2024/03/23 05:55:44;;;;;;;0.20;0.10;;;;;;;;;;5017929;28;20068;-79
2024/03/23 05:58:10;;;;;;;0.20;0.10;;;;;;;;;;5020912;28;20049;-78
2024/03/23 06:00:36;;;;;;;0.20;0.10;;;;;;;;;;5019290;28;20048;-79
2024/03/23 06:03:02;;;;;;;0.20;0.03;;;;;;;;;;5003674;28;20045;-77
2024/03/23 06:05:28;;;;;;;0.20;0.00;;;;;;;;;;5021179;28;20044;-78
2024/03/23 06:07:54;;;;;;;0.20;0.10;;;;;;;;;;5020451;28;20060;-78
2024/03/23 06:10:20;;;;;;;0.20;0.08;;;;;;;;;;5004372;28;20032;-78
2024/03/23 06:12:46;;;;;;;0.20;0.00;;;;;;;;;;5005857;28;20041;-77
2024/03/23 06:15:13;;;;;;;0.43;0.43;;;;;;;;;;5021587;28;20041;-78
2024/03/23 06:17:39;;;;;;;0.20;0.10;;;;;;;;;;5021470;28;20033;-79
2024/03/23 06:20:06;;;;;;;3.03;1.25;;;;;;;;;;5020366;28;20091;-79
2024/03/23 06:22:33;;;;;;;0.20;0.10;;;;;;;;;;5020691;28;20045;-79
2024/03/23 06:24:59;;;;;;;0.20;0.00;;;;;;;;;;5016670;28;20251;-79
2024/03/23 06:27:25;;;;;;;0.20;0.10;;;;;;;;;;5021712;28;20032;-78
2024/03/23 06:29:51;;;;;;;0.20;0.10;;;;;;;;;;5004019;28;20041;-77
2024/03/23 06:32:18;;;;;;;0.20;0.10;;;;;;;;;;5024158;28;20654;-78
2024/03/23 06:34:44;;;;;;;0.20;0.00;;;;;;;;;;5023984;28;20060;-78
2024/03/23 06:37:10;;;;;;;0.20;0.00;;;;;;;;;;5008117;28;20429;-79
2024/03/23 06:39:37;;;;;;;0.20;0.00;;;;;;;;;;5042919;28;20052;-78
2024/03/23 06:42:03;;;;;;;0.20;0.10;;;;;;;;;;5025721;28;20618;-78
2024/03/23 06:44:29;;;;;;;0.20;0.10;;;;;;;;;;5025383;28;20044;-79
2024/03/23 06:46:55;;;;;;;0.20;0.00;;;;;;;;;;5028262;28;20246;-78
2024/03/23 06:49:21;;;;;;;0.20;0.05;;;;;;;;;;5038926;28;20048;-79
2024/03/23 06:51:47;;;;;;;0.20;0.10;;;;;;;;;;5005232;28;20045;-80
2024/03/23 06:54:13;;;;;;;0.20;0.10;;;;;;;;;;5034499;28;20153;-80
2024/03/23 06:56:39;;;;;;;0.20;0.05;;;;;;;;;;5021045;28;20036;-80
2024/03/23 06:59:05;;;;;;;0.20;0.00;;;;;;;;;;5025947;28;20082;-78
2024/03/23 07:01:31;;;;;;;0.20;0.00;;;;;;;;;;5022851;28;20040;-79
2024/03/23 07:03:57;;;;;;;0.20;0.10;;;;;;;;;;5020011;28;20417;-79
2024/03/23 07:06:23;;;;;;;0.20;0.05;;;;;;;;;;5039360;28;20037;-78
2024/03/23 07:08:49;;;;;;;0.20;0.10;;;;;;;;;;5026784;28;20048;-78
2024/03/23 07:11:21;;;;;;;0.20;0.10;;;;;;;;;;5023901;28;20051;-78
2024/03/23 07:13:47;;;;;;;;;;;;;;;;;;5007380;28;20116;-82
2024/03/23 07:16:14;;;;;;;0.20;0.10;;;;;;;;;;5005222;28;20058;-80
2024/03/23 07:18:40;;;;;;;0.20;0.00;;;;;;;;;;5026700;28;20041;-78
2024/03/23 07:21:06;;;;;;;0.20;0.05;;;;;;;;;;5009580;28;20045;-79
2024/03/23 07:23:32;;;;;;;0.20;0.10;;;;;;;;;;5023499;28;20040;-78
2024/03/23 07:25:59;;;;;;;0.20;0.10;;;;;;;;;;5024216;28;20207;-79
2024/03/23 07:28:25;;;;;;;0.20;0.10;;;;;;;;;;5024866;28;20160;-77
2024/03/23 07:31:04;;;;;;;0.20;0.10;;;;;;;;;;5021127;28;20090;-79
2024/03/23 07:33:30;;;;;;;0.20;0.10;;;;;;;;;;5024904;28;20489;-77
2024/03/23 07:35:56;;;;;;;0.20;0.10;;;;;;;;;;5009272;28;20498;-78
2024/03/23 07:38:22;;;;;;;0.20;0.10;;;;;;;;;;5023298;28;20039;-77
2024/03/23 07:40:55;;;;;;;0.20;0.10;;;;;;;;;;5011149;28;20033;-79
2024/03/23 07:43:21;;;;;;;0.20;0.10;;;;;;;;;;5028889;28;20045;-81
2024/03/23 07:45:53;;;;;;;0.20;0.10;;;;;;;;;;5012018;28;20044;-79
2024/03/23 07:48:24;;;;;;;0.20;0.10;;;;;;;;;;5025151;28;20068;-80
2024/03/23 07:50:58;;;;;;;0.20;0.00;;;;;;;;;;5027109;28;20094;-80
2024/03/23 07:53:24;;;;;;;0.20;0.10;;;;;;;;;;5011233;28;20048;-80
2024/03/23 07:55:57;;;;;;;0.20;0.10;;;;;;;;;;5031788;28;20045;-81
2024/03/23 07:58:24;;;;;;;0.20;0.00;;;;;;;;;;5016153;28;20087;-79
2024/03/23 08:00:50;;;;;;;0.20;0.10;;;;;;;;;;5016383;28;20047;-80
2024/03/23 08:03:16;;;;;;;0.20;0.10;;;;;;;;;;5029778;28;20117;-78
2024/03/23 08:05:42;;;;;;;0.20;0.10;;;;;;;;;;5030001;28;20047;-80
2024/03/23 08:08:08;;;;;;;0.20;0.00;;;;;;;;;;5013230;28;20174;-79
2024/03/23 08:10:34;;;;;;;0.20;0.03;;;;;;;;;;5009772;28;20075;-80
2024/03/23 08:13:00;;;;;;;0.20;0.10;;;;;;;;;;5027732;28;20071;-79
2024/03/23 08:15:26;;;;;;;0.20;0.10;;;;;;;;;;5027024;28;20064;-79
2024/03/23 08:17:52;;;;;;;0.20;0.10;;;;;;;;;;5003168;28;20033;-81
2024/03/23 08:20:18;;;;;;;0.20;0.10;;;;;;;;;;5027148;28;20178;-78
2024/03/23 08:22:44;;;;;;;0.20;0.00;;;;;;;;;;5009231;28;20588;-81
2024/03/23 08:25:10;;;;;;;0.20;0.10;;;;;;;;;;5024585;28;20048;-80
2024/03/23 08:27:36;;;;;;;0.20;0.10;;;;;;;;;;5003867;28;20033;-80
2024/03/23 08:30:02;;;;;;;0.20;0.08;;;;;;;;;;5024840;28;20033;-79
2024/03/23 08:32:28;;;;;;;0.20;0.10;;;;;;;;;;5026052;28;20563;-78
2024/03/23 08:34:55;;;;;;;0.20;0.00;;;;;;;;;;5027341;28;20025;-80
2024/03/23 08:37:21;;;;;;;0.20;0.00;;;;;;;;;;5028121;28;20048;-78
2024/03/23 08:39:47;;;;;;;0.20;0.10;;;;;;;;;;5033436;28;20036;-77
2024/03/23 08:42:13;;;;;;;0.75;0.75;;;;;;;;;;5028655;28;20060;-78
2024/03/23 08:44:39;;;;;;;0.20;0.10;;;;;;;;;;5028686;28;20044;-77
2024/03/23 08:47:05;;;;;;;0.20;0.00;;;;;;;;;;5025620;28;20262;-79
2024/03/23 08:49:31;;;;;;;0.20;0.10;;;;;;;;;;5022934;28;20079;-77
2024/03/23 08:51:57;;;;;;;0.30;0.20;;;;;;;;;;5027104;28;20076;-80
2024/03/23 08:54:23;;;;;;;0.20;0.00;;;;;;;;;;5027324;28;20691;-78
2024/03/23 08:56:49;;;;;;;0.20;0.00;;;;;;;;;;5022737;28;20125;-79
2024/03/23 08:59:15;;;;;;;0.20;0.10;;;;;;;;;;5009090;28;20044;-80
2024/03/23 09:01:41;;;;;;;0.20;0.00;;;;;;;;;;5024327;28;20040;-78
2024/03/23 09:04:07;;;;;;;0.20;0.00;;;;;;;;;;5026223;28;20551;-79
2024/03/23 09:06:33;;;;;;;0.20;0.10;;;;;;;;;;5009338;28;20128;-78
2024/03/23 09:08:59;;;;;;;0.20;0.10;;;;;;;;;;5020277;28;20133;-78
2024/03/23 09:11:25;;;;;;;0.20;0.10;;;;;;;;;;5016456;28;21176;-79
2024/03/23 09:13:51;;;;;;;0.20;0.10;;;;;;;;;;5026483;28;20044;-78
2024/03/23 09:16:17;;;;;;;0.20;0.20;;;;;;;;;;5024122;28;20128;-77
2024/03/23 09:18:45;;;;;;;0.57;0.57;;;;;;;;;;5051714;23;20127;-81
2024/03/23 09:21:14;;;;;;;0.20;0.00;;;;;;;;;;5010789;28;20045;-80
2024/03/23 09:23:40;;;;;;;0.20;0.10;;;;;;;;;;5041005;28;20045;-80
2024/03/23 09:26:09;;;;;;;0.20;0.10;;;;;;;;;;5024645;28;20136;-80
2024/03/23 09:28:35;;;;;;;0.20;0.10;;;;;;;;;;5021957;28;20402;-79
2024/03/23 09:31:05;;;;;;;0.20;0.00;;;;;;;;;;5029442;28;20451;-80
2024/03/23 09:33:31;;;;;;;0.20;0.00;;;;;;;;;;5010113;28;20040;-79
2024/03/23 09:35:57;;;;;;;0.20;0.10;;;;;;;;;;5008867;28;20098;-81
2024/03/23 09:38:23;;;;;;;0.20;0.00;;;;;;;;;;5004744;28;20109;-82
2024/03/23 09:40:53;;;;;;;0.20;0.10;;;;;;;;;;5029608;28;20266;-81
2024/03/23 09:43:19;;;;;;;0.20;0.10;;;;;;;;;;5025648;28;20033;-81
2024/03/23 09:45:45;;;;;;;0.20;0.00;;;;;;;;;;5022166;28;20701;-80
2024/03/23 09:48:12;;;;;;;0.20;0.10;;;;;;;;;;5008204;28;20443;-81
2024/03/23 09:50:41;;;;;;;0.20;0.10;;;;;;;;;;5024713;28;20052;-80
2024/03/23 09:53:08;;;;;;;0.20;0.10;;;;;;;;;;5012213;28;20413;-80
2024/03/23 09:55:37;;;;;;;0.20;0.00;;;;;;;;;;5008943;28;20161;-80
2024/03/23 09:58:04;;;;;;;0.20;0.10;;;;;;;;;;5026712;28;20086;-80
2024/03/23 10:00:31;;;;;;;0.20;0.00;;;;;;;;;;5000412;28;20387;-79
2024/03/23 10:03:03;;;;;;;0.43;0.43;;;;;;;;;;5023774;28;20070;-79
2024/03/23 10:05:32;;;;;;;0.20;0.10;;;;;;;;;;5011145;28;20033;-83
2024/03/23 10:07:58;;;;;;;0.20;0.00;;;;;;;;;;5023806;28;20076;-83
2024/03/23 10:10:25;;;;;;;0.20;0.10;;;;;;;;;;5011444;28;20033;-80
2024/03/23 10:12:51;;;;;;;0.20;0.10;;;;;;;;;;5013629;28;20040;-82
2024/03/23 10:15:21;;;;;;;0.20;0.00;;;;;;;;;;5026218;28;20045;-80
2024/03/23 10:17:47;;;;;;;2.92;2.47;;;;;;;;;;5029642;28;20040;-80
2024/03/23 10:20:13;;;;;;;0.20;0.10;;;;;;;;;;5025487;28;20037;-82
2024/03/23 10:22:40;;;;;;;0.20;0.10;;;;;;;;;;5053777;28;20045;-83
2024/03/23 10:25:09;;;;;;;0.20;0.03;;;;;;;;;;5043030;28;20037;-81
2024/03/23 10:27:35;;;;;;;0.20;0.00;;;;;;;;;;5033985;28;20041;-81
2024/03/23 10:30:09;;;;;;;0.20;0.10;;;;;;;;;;5028602;28;20150;-80
2024/03/23 10:32:35;;;;;;;0.38;0.38;;;;;;;;;;5044145;28;20171;-80
2024/03/23 10:35:23;;;;;;;0.20;0.10;;;;;;;;;;5048948;28;20052;-84
2024/03/23 10:37:50;;;;;;;0.20;0.10;;;;;;;;;;5024935;28;20335;-79
2024/03/23 10:40:16;;;;;;;0.20;0.10;;;;;;;;;;5047931;28;20527;-80
2024/03/23 10:42:42;;;;;;;0.20;0.20;;;;;;;;;;5043121;28;20049;-80
2024/03/23 10:45:09;;;;;;;0.20;0.10;;;;;;;;;;5025776;28;20079;-80
2024/03/23 10:47:38;;;;;;;0.20;0.00;;;;;;;;;;5043634;28;20036;-80
2024/03/23 10:50:08;;;;;;;0.20;0.00;;;;;;;;;;5042891;28;20074;-80
2024/03/23 10:52:34;;;;;;;0.20;0.00;;;;;;;;;;5029348;28;20129;-82
2024/03/23 10:55:03;;;;;;;0.20;0.10;;;;;;;;;;5028825;28;20045;-81
2024/03/23 10:57:32;;;;;;;0.20;0.10;;;;;;;;;;5042870;28;20070;-80
2024/03/23 10:59:58;;;;;;;0.20;0.10;;;;;;;;;;5043753;28;20508;-82
2024/03/23 11:02:28;;;;;;;0.20;0.10;;;;;;;;;;5027764;28;20037;-81
2024/03/23 11:04:54;;;;;;;0.20;0.10;;;;;;;;;;5028424;28;20033;-79
2024/03/23 11:07:33;;;;;;;0.20;0.10;;;;;;;;;;5044617;28;20052;-83
2024/03/23 11:09:59;;;;;;;0.20;0.10;;;;;;;;;;5046174;28;20040;-79
2024/03/23 11:12:26;;;;;;;0.20;0.10;;;;;;;;;;5047015;28;20578;-82
2024/03/23 11:14:58;;;;;;;0.20;0.10;;;;;;;;;;5035421;28;20045;-84
2024/03/23 11:17:25;;;;;;;0.20;0.10;;;;;;;;;;5020100;28;20569;-82
2024/03/23 11:20:09;;;;;;;0.20;0.00;;;;;;;;;;5030040;28;20139;-78
2024/03/23 11:22:41;;;;;;;0.20;0.10;;;;;;;;;;5026932;28;20045;-79
2024/03/23 11:25:16;;;;;;;0.20;0.10;;;;;;;;;;5025021;28;20167;-81
2024/03/23 11:27:44;;;;;;;0.20;0.10;;;;;;;;;;5036745;28;20079;-80
2024/03/23 11:30:16;;;;;;;0.20;0.10;;;;;;;;;;5023532;28;20058;-78
2024/03/23 11:32:43;;;;;;;0.20;0.10;;;;;;;;;;5040711;28;20039;-82
2024/03/23 11:35:09;;;;;;;0.20;0.10;;;;;;;;;;5051265;28;20033;-80
2024/03/23 11:37:36;;;;;;;0.20;0.00;;;;;;;;;;5016275;28;20045;-82
2024/03/23 11:40:17;;;;;;;0.20;0.10;;;;;;;;;;5017185;28;20124;-83
2024/03/23 11:42:43;;;;;;;0.20;0.10;;;;;;;;;;5031655;28;21483;-82
2024/03/23 11:45:09;;;;;;;0.65;0.55;;;;;;;;;;5017421;28;20405;-82
2024/03/23 11:47:35;;;;;;;5.15;2.28;;;;;;;;;;5022522;28;20124;-82
2024/03/23 11:50:01;;;;;;;0.20;0.03;;;;;;;;;;5026362;28;20119;-81
2024/03/23 11:52:27;;;;;;;0.20;0.03;;;;;;;;;;5035490;28;20037;-82
2024/03/23 11:55:03;;;;;;;0.20;0.00;;;;;;;;;;5026410;28;20163;-81
2024/03/23 11:57:30;;;;;;;0.20;0.10;;;;;;;;;;5021948;28;20045;-80
2024/03/23 11:59:56;;;;;;;0.20;0.10;;;;;;;;;;5020866;28;20035;-80
2024/03/23 12:02:22;;;;;;;0.20;0.10;;;;;;;;;;5023503;28;20044;-81
2024/03/23 12:04:48;;;;;;;0.20;0.00;;;;;;;;;;5041595;28;20044;-82
2024/03/23 12:07:14;;;;;;;0.20;0.10;;;;;;;;;;5038267;28;20052;-81
2024/03/23 12:09:40;;;;;;;0.20;0.00;;;;;;;;;;5033804;28;20361;-80
2024/03/23 12:12:11;;;;;;;0.20;0.00;;;;;;;;;;5017685;28;20045;-81
2024/03/23 12:14:37;;;;;;;0.20;0.03;;;;;;;;;;5039204;28;20053;-80
2024/03/23 12:17:13;;;;;;;8.27;0.35;;;;;;;;;;5026187;28;20041;-82
2024/03/23 12:19:41;;;;;;;0.35;0.28;;;;;;;;;;5036544;28;20053;-77
2024/03/23 12:22:07;;;;;;;0.20;0.10;;;;;;;;;;5027739;28;20044;-78
2024/03/23 12:24:36;;;;;;;0.20;0.10;;;;;;;;;;5046099;28;20037;-82
2024/03/23 12:27:02;;;;;;;0.20;0.05;;;;;;;;;;5029915;28;20067;-81
2024/03/23 12:29:35;;;;;;;0.20;0.10;;;;;;;;;;5046017;28;20123;-81
2024/03/23 12:32:01;;;;;;;0.20;0.10;;;;;;;;;;5033483;28;20055;-80
2024/03/23 12:34:27;;;;;;;0.20;0.00;;;;;;;;;;5026892;28;20030;-81
2024/03/23 12:36:54;;;;;;;0.20;0.00;;;;;;;;;;5043742;28;20033;-81
2024/03/23 12:39:21;;;;;;;0.20;0.00;;;;;;;;;;5029821;28;20041;-81
2024/03/23 12:41:47;;;;;;;0.20;0.00;;;;;;;;;;5029684;28;20400;-82
2024/03/23 12:44:14;;;;;;;0.20;0.10;;;;;;;;;;5044176;28;20129;-79
2024/03/23 12:46:40;;;;;;;0.20;0.10;;;;;;;;;;5028991;28;20036;-81
2024/03/23 12:49:06;;;;;;;0.20;0.10;;;;;;;;;;5046413;28;20124;-82
2024/03/23 12:51:33;;;;;;;0.75;0.75;;;;;;;;;;5047047;28;20073;-82
2024/03/23 12:53:59;;;;;;;0.20;0.00;;;;;;;;;;5045970;28;20029;-80
2024/03/23 12:56:25;;;;;;;2.35;2.15;;;;;;;;;;5030595;28;20416;-80
2024/03/23 12:58:52;;;;;;;0.30;0.13;;;;;;;;;;5044952;28;20063;-81
2024/03/23 13:01:19;;;;;;;0.20;0.10;;;;;;;;;;5023849;28;20144;-81
2024/03/23 13:03:46;;;;;;;0.20;0.05;;;;;;;;;;5040156;28;20125;-81
2024/03/23 13:06:13;;;;;;;0.20;0.10;;;;;;;;;;5027567;28;20055;-80
2024/03/23 13:08:40;;;;;;;0.20;0.10;;;;;;;;;;5030328;28;20040;-81
2024/03/23 13:11:08;;;;;;;0.20;0.10;;;;;;;;;;5032382;28;20094;-82
2024/03/23 13:13:34;;;;;;;0.20;0.10;;;;;;;;;;5044355;28;20049;-82
2024/03/23 13:16:00;;;;;;;0.20;0.00;;;;;;;;;;5050069;28;20047;-84
2024/03/23 13:18:26;;;;;;;0.20;0.10;;;;;;;;;;5031092;28;20068;-80
2024/03/23 13:20:52;;;;;;;0.20;0.10;;;;;;;;;;5031213;28;20061;-82
2024/03/23 13:23:18;;;;;;;0.20;0.10;;;;;;;;;;5052060;28;20116;-83
2024/03/23 13:26:03;;;;;;;0.20;0.10;;;;;;;;;;5044031;28;20079;-84
2024/03/23 13:28:28;;;;;;;0.20;0.00;;;;;;;;;;5030059;28;20382;-82
2024/03/23 13:30:55;;;;;;;0.20;0.10;;;;;;;;;;5029829;28;20098;-81
2024/03/23 13:33:21;;;;;;;0.20;0.10;;;;;;;;;;5048512;28;20045;-82
2024/03/23 13:35:55;;;;;;;0.20;0.08;;;;;;;;;;5046136;28;20053;-83
2024/03/23 13:38:21;;;;;;;0.20;0.10;;;;;;;;;;5050083;28;20063;-82
2024/03/23 13:40:54;;;;;;;0.20;0.10;;;;;;;;;;5032897;28;20602;-80
2024/03/23 13:43:23;;;;;;;0.20;0.10;;;;;;;;;;5042452;28;20041;-81
2024/03/23 13:45:50;;;;;;;0.20;0.08;;;;;;;;;;5044727;28;20049;-80
2024/03/23 13:48:16;;;;;;;0.20;0.10;;;;;;;;;;5043800;28;20364;-81
2024/03/23 13:50:42;;;;;;;0.20;0.00;;;;;;;;;;5026649;28;20041;-82
2024/03/23 13:53:08;;;;;;;0.20;0.10;;;;;;;;;;5027122;28;20041;-82
2024/03/23 13:55:35;;;;;;;0.30;0.30;;;;;;;;;;5029475;28;20041;-82
2024/03/23 13:58:01;;;;;;;0.20;0.10;;;;;;;;;;5027883;28;20037;-83
2024/03/23 14:00:27;;;;;;;0.20;0.10;;;;;;;;;;5043074;28;20043;-82
2024/03/23 14:02:53;;;;;;;0.20;0.10;;;;;;;;;;5028191;28;20037;-83
2024/03/23 14:05:19;;;;;;;0.20;0.10;;;;;;;;;;5029579;28;20142;-81
2024/03/23 14:07:45;;;;;;;0.22;0.20;;;;;;;;;;5029642;28;20037;-80
2024/03/23 14:10:11;;;;;;;0.20;0.10;;;;;;;;;;5029367;28;20116;-84
2024/03/23 14:12:37;;;;;;;0.20;0.10;;;;;;;;;;5029835;28;20052;-81
2024/03/23 14:15:07;;;;;;;0.20;0.10;;;;;;;;;;5024563;28;20112;-81
2024/03/23 14:17:33;;;;;;;0.20;0.10;;;;;;;;;;5045125;28;20091;-79
2024/03/23 14:20:01;;;;;;;0.20;0.08;;;;;;;;;;5029195;28;20064;-82
2024/03/23 14:22:30;;;;;;;0.20;0.10;;;;;;;;;;5028795;28;20063;-84
2024/03/23 14:24:56;;;;;;;0.20;0.10;;;;;;;;;;5027050;28;20048;-85
2024/03/23 14:27:22;;;;;;;0.20;0.10;;;;;;;;;;5045040;28;20413;-82
2024/03/23 14:29:48;;;;;;;0.20;0.08;;;;;;;;;;5029400;28;20094;-84
2024/03/23 14:32:14;;;;;;;3.10;0.52;;;;;;;;;;5043123;28;20405;-83
2024/03/23 14:34:41;;;;;;;0.20;0.00;;;;;;;;;;5043658;28;20127;-79
2024/03/23 14:37:07;;;;;;;0.20;0.10;;;;;;;;;;5028342;28;20041;-81
2024/03/23 14:39:38;;;;;;;0.20;0.00;;;;;;;;;;5019292;28;20401;-80
2024/03/23 14:42:06;;;;;;;0.20;0.10;;;;;;;;;;5041679;28;20138;-80